Time;durP1;ratioP1;P1;durP2;ratioP2;P2;SDS_P1;SDS_P2;PMS_P1;PMS_P2;Temp;Humidity;BMP_temperature;BMP_pressure;BME280_temperature;BME280_humidity;BME280_pressure;Samples;Min_cycle;Max_cycle;Signal;HPM_P1;HPM_P2
2023/11/20 00:02:15;;;;;;;11.38;2.63;;;16.10;71.50;17.60;100534.00;;;;4976545;28;20208;-75
2023/11/20 00:04:42;;;;;;;7.95;1.98;;;16.10;71.50;17.60;100549.00;;;;4972675;28;20199;-75
2023/11/20 00:07:10;;;;;;;9.65;1.88;;;16.10;71.50;17.50;100532.00;;;;4973947;28;20210;-74
2023/11/20 00:09:37;;;;;;;8.30;1.83;;;16.10;71.40;17.50;100538.00;;;;4979716;28;20205;-75
2023/11/20 00:12:08;;;;;;;7.40;1.55;;;16.10;71.50;17.50;100535.00;;;;4976308;28;20218;-75
2023/11/20 00:14:37;;;;;;;4.95;1.30;;;16.10;71.50;17.50;100548.00;;;;4971238;28;20201;-75
2023/11/20 00:17:04;;;;;;;12.43;1.98;;;16.10;71.40;17.50;100536.00;;;;4977287;28;20194;-75
2023/11/20 00:19:32;;;;;;;8.77;2.05;;;16.00;71.40;17.50;100540.00;;;;4971611;28;20190;-75
2023/11/20 00:22:00;;;;;;;6.43;1.63;;;16.00;71.40;17.50;100544.00;;;;4971757;28;20187;-75
2023/11/20 00:24:26;;;;;;;8.88;1.83;;;16.00;71.40;17.50;100549.00;;;;4968417;28;20253;-75
2023/11/20 00:26:54;;;;;;;12.05;1.52;;;16.00;71.50;17.50;100539.00;;;;4969037;28;20198;-75
2023/11/20 00:29:21;;;;;;;5.00;1.38;;;16.00;71.50;17.50;100538.00;;;;4969806;28;20228;-75
2023/11/20 00:31:50;;;;;;;6.45;1.55;;;16.00;71.40;17.50;100540.00;;;;4977690;28;20230;-75
2023/11/20 00:34:17;;;;;;;8.82;1.80;;;16.00;71.50;17.50;100542.00;;;;4975842;28;20206;-75
2023/11/20 00:36:44;;;;;;;8.32;1.73;;;16.00;71.50;17.50;100545.00;;;;4970014;28;20206;-75
2023/11/20 00:39:10;;;;;;;9.27;1.42;;;16.00;71.40;17.50;100544.00;;;;4971954;28;20199;-75
2023/11/20 00:41:37;;;;;;;7.68;1.88;;;16.00;71.40;17.50;100543.00;;;;4967677;28;20198;-75
2023/11/20 00:44:06;;;;;;;8.45;1.67;;;16.00;71.50;17.50;100537.00;;;;4973045;28;20216;-74
2023/11/20 00:46:33;;;;;;;8.90;1.40;;;16.00;71.50;17.50;100544.00;;;;4976189;28;20210;-75
2023/11/20 00:49:03;;;;;;;4.38;1.05;;;16.00;71.40;17.50;100545.00;;;;4969785;28;20198;-75
2023/11/20 00:51:30;;;;;;;11.18;1.42;;;16.00;71.50;17.50;100535.00;;;;4968753;28;20222;-75
2023/11/20 00:53:57;;;;;;;6.03;1.20;;;16.00;71.50;17.40;100550.00;;;;4968832;28;20206;-75
2023/11/20 00:56:24;;;;;;;12.15;1.90;;;16.00;71.50;17.40;100547.00;;;;4969675;28;20202;-75
2023/11/20 00:58:51;;;;;;;5.07;1.20;;;16.00;71.50;17.40;100549.00;;;;4976152;28;20556;-75
2023/11/20 01:01:18;;;;;;;5.38;1.45;;;15.90;71.40;17.40;100556.00;;;;4967128;28;20194;-75
2023/11/20 01:03:45;;;;;;;5.82;1.20;;;15.90;71.40;17.40;100553.00;;;;4976287;28;20574;-75
2023/11/20 01:06:14;;;;;;;7.10;1.58;;;15.90;71.50;17.40;100554.00;;;;4977055;28;20194;-75
2023/11/20 01:08:40;;;;;;;7.55;1.75;;;15.90;71.60;17.40;100556.00;;;;4966836;28;20206;-75
2023/11/20 01:11:09;;;;;;;6.30;1.67;;;15.90;71.50;17.40;100555.00;;;;4972353;28;20294;-75
2023/11/20 01:13:36;;;;;;;3.97;1.23;;;15.90;71.50;17.40;100569.00;;;;4975554;28;20210;-75
2023/11/20 01:16:04;;;;;;;6.45;1.70;;;15.90;71.50;17.40;100563.00;;;;4965848;28;20209;-75
2023/11/20 01:18:32;;;;;;;6.55;1.48;;;15.90;71.50;17.40;100562.00;;;;4974782;28;20205;-75
2023/11/20 01:20:59;;;;;;;9.23;1.70;;;15.90;71.50;17.40;100560.00;;;;4973212;28;20210;-75
2023/11/20 01:23:27;;;;;;;6.13;1.10;;;15.90;71.50;17.30;100564.00;;;;4972986;28;20199;-75
2023/11/20 01:25:56;;;;;;;3.45;1.00;;;15.80;71.40;17.30;100569.00;;;;4976255;28;20190;-75
2023/11/20 01:28:23;;;;;;;4.28;1.15;;;15.80;71.50;17.30;100568.00;;;;4971761;28;20190;-76
2023/11/20 01:30:50;;;;;;;7.15;1.55;;;15.80;71.50;17.30;100575.00;;;;4970096;28;20222;-76
2023/11/20 01:33:17;;;;;;;6.15;1.30;;;15.80;71.50;17.30;100571.00;;;;4974001;28;20206;-75
2023/11/20 01:35:46;;;;;;;6.97;1.38;;;15.80;71.60;17.30;100574.00;;;;4974681;28;20214;-75
2023/11/20 01:38:13;;;;;;;5.00;1.02;;;15.80;71.70;17.30;100580.00;;;;4972221;28;20687;-75
2023/11/20 01:40:41;;;;;;;5.20;1.13;;;15.70;71.60;17.30;100575.00;;;;4969235;28;20199;-74
2023/11/20 01:43:08;;;;;;;9.55;1.50;;;15.80;71.80;17.30;100581.00;;;;4977420;28;20212;-75
2023/11/20 01:45:35;;;;;;;4.93;1.17;;;15.80;71.80;17.30;100590.00;;;;4970481;28;20206;-75
2023/11/20 01:48:02;;;;;;;4.50;1.50;;;15.70;71.70;17.30;100583.00;;;;4976260;28;20670;-75
2023/11/20 01:50:32;;;;;;;2.42;1.05;;;15.80;71.80;17.30;100586.00;;;;4966171;28;20528;-75
2023/11/20 01:53:00;;;;;;;10.35;1.75;;;15.80;71.90;17.30;100595.00;;;;4976248;28;20664;-75
2023/11/20 01:55:27;;;;;;;6.70;2.03;;;15.80;71.90;17.30;100592.00;;;;4975281;28;20198;-75
2023/11/20 01:57:56;;;;;;;8.75;2.03;;;15.80;71.80;17.30;100587.00;;;;4967775;28;20226;-75
2023/11/20 02:00:24;;;;;;;6.47;1.40;;;15.80;71.90;17.30;100588.00;;;;4971308;28;20202;-75
2023/11/20 02:02:51;;;;;;;9.10;1.48;;;15.70;71.80;17.30;100579.00;;;;4977151;28;20201;-74
2023/11/20 02:05:19;;;;;;;5.82;1.50;;;15.80;71.80;17.30;100590.00;;;;4967135;28;20209;-75
2023/11/20 02:07:46;;;;;;;8.23;1.98;;;15.70;71.80;17.20;100587.00;;;;4960988;28;20249;-75
2023/11/20 02:10:13;;;;;;;5.70;2.13;;;15.70;71.80;17.20;100600.00;;;;4968490;28;20202;-76
2023/11/20 02:12:41;;;;;;;7.22;1.30;;;15.70;71.80;17.20;100594.00;;;;4968311;28;20237;-75
2023/11/20 02:15:11;;;;;;;8.40;1.63;;;15.70;71.80;17.20;100595.00;;;;4968886;28;20199;-75
2023/11/20 02:17:38;;;;;;;5.60;1.38;;;15.70;71.80;17.20;100594.00;;;;4975710;28;20295;-75
2023/11/20 02:20:07;;;;;;;7.85;1.20;;;15.70;71.80;17.20;100587.00;;;;4968927;28;20201;-75
2023/11/20 02:22:34;;;;;;;7.00;1.48;;;15.70;71.80;17.20;100596.00;;;;4969671;28;20202;-75
2023/11/20 02:25:01;;;;;;;4.40;1.27;;;15.70;71.70;17.20;100591.00;;;;4968692;28;20865;-75
2023/11/20 02:27:39;;;;;;;7.43;1.30;;;15.70;71.70;17.10;100589.00;;;;4970108;28;20203;-75
2023/11/20 02:30:09;;;;;;;5.65;1.33;;;15.70;71.70;17.10;100590.00;;;;4970884;28;20699;-75
2023/11/20 02:32:36;;;;;;;7.82;1.40;;;15.70;71.70;17.10;100582.00;;;;4968178;28;20603;-75
2023/11/20 02:35:04;;;;;;;4.35;1.10;;;15.70;71.70;17.10;100573.00;;;;4971822;28;20210;-75
2023/11/20 02:37:32;;;;;;;5.65;1.35;;;15.60;71.60;17.10;100588.00;;;;4980978;28;20197;-75
2023/11/20 02:39:59;;;;;;;4.93;0.88;;;15.60;71.50;17.10;100576.00;;;;4969772;28;20206;-75
2023/11/20 02:42:26;;;;;;;4.63;1.42;;;15.60;71.60;17.00;100574.00;;;;4971331;28;20688;-75
2023/11/20 02:44:53;;;;;;;10.80;1.45;;;15.60;71.60;17.10;100573.00;;;;4980458;28;20572;-75
2023/11/20 02:47:22;;;;;;;10.20;1.60;;;15.60;71.60;17.00;100571.00;;;;4975956;28;20213;-75
2023/11/20 02:49:49;;;;;;;8.00;1.15;;;15.60;71.70;17.00;100574.00;;;;4971565;28;20711;-75
2023/11/20 02:52:16;;;;;;;7.78;1.45;;;15.50;71.70;17.00;100578.00;;;;4979232;28;20598;-75
2023/11/20 02:54:45;;;;;;;7.40;1.55;;;15.50;71.70;17.00;100560.00;;;;4971945;28;20201;-75
2023/11/20 02:57:12;;;;;;;6.72;1.70;;;15.50;71.60;17.00;100568.00;;;;4972972;28;20644;-75
2023/11/20 02:59:39;;;;;;;11.60;2.05;;;15.50;71.60;17.00;100565.00;;;;4971599;28;20202;-75
2023/11/20 03:02:06;;;;;;;6.15;1.35;;;15.50;71.60;17.00;100568.00;;;;4970627;28;20213;-75
2023/11/20 03:04:34;;;;;;;8.20;1.05;;;15.50;71.60;16.90;100567.00;;;;4975856;28;20719;-75
2023/11/20 03:07:01;;;;;;;6.10;1.08;;;15.50;71.70;16.90;100568.00;;;;4972088;28;20603;-75
2023/11/20 03:09:28;;;;;;;9.43;1.50;;;15.40;71.70;16.90;100560.00;;;;4971832;28;20198;-75
2023/11/20 03:11:55;;;;;;;6.22;1.38;;;15.40;71.70;17.00;100572.00;;;;4971642;28;20221;-75
2023/11/20 03:14:23;;;;;;;6.53;1.88;;;15.40;71.80;16.90;100571.00;;;;4977474;28;20201;-74
2023/11/20 03:16:50;;;;;;;9.48;1.52;;;15.40;71.80;17.00;100574.00;;;;4971080;28;20667;-74
2023/11/20 03:19:17;;;;;;;11.05;1.85;;;15.40;71.80;17.00;100578.00;;;;4970794;28;20608;-74
2023/11/20 03:21:46;;;;;;;4.90;0.98;;;15.40;71.80;16.90;100577.00;;;;4970181;28;20294;-74
2023/11/20 03:24:13;;;;;;;7.95;1.98;;;15.40;71.80;17.00;100576.00;;;;4970553;28;20203;-74
2023/11/20 03:26:40;;;;;;;6.07;1.17;;;15.40;71.80;16.90;100572.00;;;;4972152;28;20209;-74
2023/11/20 03:29:07;;;;;;;5.60;1.30;;;15.40;71.80;17.00;100571.00;;;;4970232;28;20210;-74
2023/11/20 03:31:36;;;;;;;7.57;0.90;;;15.40;71.80;17.00;100575.00;;;;4967388;28;20272;-75
2023/11/20 03:34:03;;;;;;;5.85;1.38;;;15.40;71.80;17.00;100576.00;;;;4970239;28;20199;-74
2023/11/20 03:36:32;;;;;;;5.90;1.10;;;15.40;71.80;17.00;100578.00;;;;4969976;28;20927;-75
2023/11/20 03:39:01;;;;;;;6.85;1.02;;;15.40;71.80;17.00;100580.00;;;;4970432;28;20202;-75
2023/11/20 03:41:28;;;;;;;10.68;1.10;;;15.40;71.80;17.00;100574.00;;;;4970306;28;20269;-75
2023/11/20 03:43:55;;;;;;;8.57;1.20;;;15.50;71.80;17.00;100581.00;;;;4978940;28;20208;-75
2023/11/20 03:46:22;;;;;;;8.30;1.02;;;15.50;71.80;17.00;100574.00;;;;4970543;28;20198;-75
2023/11/20 03:48:49;;;;;;;9.98;1.20;;;15.50;71.70;17.00;100577.00;;;;4970384;28;21025;-75
2023/11/20 03:51:19;;;;;;;12.13;1.63;;;15.50;71.60;17.00;100578.00;;;;4970458;28;20228;-75
2023/11/20 03:53:46;;;;;;;11.20;1.98;;;15.50;71.60;17.00;100581.00;;;;4970463;28;20217;-75
2023/11/20 03:56:15;;;;;;;13.73;1.60;;;15.50;71.60;17.00;100575.00;;;;4968326;28;20672;-75
2023/11/20 03:58:44;;;;;;;8.02;1.40;;;15.50;71.60;17.00;100578.00;;;;4951207;29;20190;-75
2023/11/20 04:01:12;;;;;;;9.93;2.20;;;15.50;71.50;17.00;100579.00;;;;4949502;28;20227;-75
2023/11/20 04:03:39;;;;;;;8.35;1.77;;;15.50;71.50;17.00;100573.00;;;;4944953;28;20267;-74
2023/11/20 04:06:07;;;;;;;9.18;1.55;;;15.50;71.50;17.00;100577.00;;;;4949577;28;20210;-75
2023/11/20 04:08:33;;;;;;;5.70;1.13;;;15.50;71.60;17.00;100578.00;;;;4955662;28;20206;-74
2023/11/20 04:11:02;;;;;;;8.93;2.10;;;15.50;71.50;17.10;100571.00;;;;4953114;28;20215;-75
2023/11/20 04:13:31;;;;;;;7.15;1.80;;;15.50;71.50;17.00;100580.00;;;;4947863;28;20807;-74
2023/11/20 04:15:58;;;;;;;6.55;0.93;;;15.50;71.40;17.10;100580.00;;;;4950745;28;20744;-75
2023/11/20 04:18:25;;;;;;;6.57;1.30;;;15.50;71.40;17.10;100590.00;;;;4957857;28;20266;-74
2023/11/20 04:20:52;;;;;;;9.73;1.83;;;15.50;71.30;17.00;100593.00;;;;4950951;29;20266;-74
2023/11/20 04:23:19;;;;;;;7.38;1.42;;;15.50;71.30;17.10;100592.00;;;;4951313;28;20195;-74
2023/11/20 04:25:46;;;;;;;7.25;1.40;;;15.50;71.30;17.00;100598.00;;;;4948460;29;20665;-75
2023/11/20 04:28:13;;;;;;;11.57;1.58;;;15.50;71.20;17.00;100595.00;;;;4950832;29;20206;-75
2023/11/20 04:30:42;;;;;;;5.47;1.13;;;15.50;71.10;17.00;100602.00;;;;4953530;28;20203;-74
2023/11/20 04:33:09;;;;;;;7.22;1.35;;;15.50;71.10;17.00;100592.00;;;;4950473;28;20238;-75
2023/11/20 04:35:36;;;;;;;5.22;0.75;;;15.50;71.00;17.00;100594.00;;;;4949615;28;20577;-74
2023/11/20 04:38:03;;;;;;;8.20;1.63;;;15.50;71.00;17.00;100600.00;;;;4949500;28;20246;-75
2023/11/20 04:40:30;;;;;;;7.78;1.98;;;15.40;70.90;16.90;100589.00;;;;4949125;29;20201;-74
2023/11/20 04:42:57;;;;;;;9.63;1.65;;;15.40;70.90;16.90;100597.00;;;;4950169;29;20195;-75
2023/11/20 04:45:24;;;;;;;9.98;1.63;;;15.40;70.90;16.90;100606.00;;;;4952537;28;20265;-75
2023/11/20 04:47:52;;;;;;;10.68;2.20;;;15.40;70.90;16.90;100606.00;;;;4944199;28;20203;-74
2023/11/20 04:50:19;;;;;;;11.18;2.38;;;15.40;71.00;16.90;100605.00;;;;4959249;28;20199;-75
2023/11/20 04:52:46;;;;;;;12.73;1.98;;;15.40;70.90;16.90;100603.00;;;;4955087;28;20211;-75
2023/11/20 04:55:13;;;;;;;6.15;1.10;;;15.40;70.90;16.90;100605.00;;;;4948524;28;20198;-75
2023/11/20 04:57:40;;;;;;;9.35;1.48;;;15.40;70.90;16.90;100604.00;;;;4966249;28;20237;-74
2023/11/20 05:00:10;;;;;;;5.68;1.42;;;15.40;70.90;16.90;100599.00;;;;4970036;28;20206;-75
2023/11/20 05:02:37;;;;;;;8.70;1.50;;;15.40;71.00;16.90;100597.00;;;;4971210;28;20230;-74
2023/11/20 05:05:06;;;;;;;10.95;1.20;;;15.30;70.90;16.80;100592.00;;;;4978208;28;20198;-75
2023/11/20 05:07:34;;;;;;;8.82;1.38;;;15.30;70.90;16.90;100594.00;;;;4976065;28;20241;-74
2023/11/20 05:10:01;;;;;;;9.43;1.73;;;15.30;70.90;16.90;100583.00;;;;4975232;28;20248;-74
2023/11/20 05:12:28;;;;;;;6.47;1.10;;;15.30;70.90;16.80;100591.00;;;;4972320;28;20257;-75
2023/11/20 05:14:55;;;;;;;7.75;1.63;;;15.30;70.90;16.80;100594.00;;;;4969582;28;20199;-74
2023/11/20 05:17:22;;;;;;;6.93;1.63;;;15.30;70.90;16.80;100592.00;;;;4968043;28;20553;-75
2023/11/20 05:19:49;;;;;;;7.47;1.58;;;15.30;70.90;16.80;100591.00;;;;4970843;28;20225;-74
2023/11/20 05:22:18;;;;;;;8.18;1.45;;;15.30;70.90;16.80;100592.00;;;;4962252;28;20203;-75
2023/11/20 05:24:45;;;;;;;6.30;1.13;;;15.30;70.90;16.80;100593.00;;;;4977396;28;20194;-75
2023/11/20 05:27:12;;;;;;;7.38;1.45;;;15.20;70.90;16.80;100595.00;;;;4969499;28;20206;-75
2023/11/20 05:29:40;;;;;;;5.68;1.17;;;15.20;70.80;16.80;100595.00;;;;4966271;28;20191;-75
2023/11/20 05:32:07;;;;;;;5.00;1.50;;;15.20;70.80;16.80;100602.00;;;;4969809;28;20229;-75
2023/11/20 05:34:35;;;;;;;11.68;1.75;;;15.20;70.80;16.80;100601.00;;;;4973586;28;20309;-74
2023/11/20 05:37:03;;;;;;;12.80;1.67;;;15.20;70.90;16.80;100596.00;;;;4968863;28;20194;-74
2023/11/20 05:39:31;;;;;;;7.35;2.00;;;15.20;70.80;16.70;100599.00;;;;4967747;28;20198;-74
2023/11/20 05:41:58;;;;;;;9.10;1.92;;;15.20;70.80;16.70;100594.00;;;;4974635;28;20197;-74
2023/11/20 05:44:25;;;;;;;5.22;1.42;;;15.20;70.80;16.70;100592.00;;;;4969825;28;20205;-75
2023/11/20 05:46:52;;;;;;;9.88;1.65;;;15.20;70.80;16.70;100593.00;;;;4970010;28;20194;-74
2023/11/20 05:49:19;;;;;;;8.45;1.27;;;15.20;70.80;16.70;100598.00;;;;4971531;28;20202;-75
2023/11/20 05:51:46;;;;;;;5.88;1.35;;;15.20;70.80;16.70;100595.00;;;;4966278;28;20202;-75
2023/11/20 05:54:13;;;;;;;9.82;1.50;;;15.20;70.80;16.70;100596.00;;;;4969499;28;20205;-74
2023/11/20 05:56:41;;;;;;;15.15;2.08;;;15.20;70.80;16.70;100600.00;;;;4969139;28;20224;-74
2023/11/20 05:59:10;;;;;;;10.18;2.20;;;15.20;70.80;16.70;100605.00;;;;4968702;28;20248;-74
2023/11/20 06:01:38;;;;;;;9.68;1.52;;;15.20;70.80;16.70;100602.00;;;;4969875;28;21851;-75
2023/11/20 06:04:08;;;;;;;6.93;1.42;;;15.20;70.80;16.70;100609.00;;;;4968045;28;20246;-75
2023/11/20 06:06:35;;;;;;;8.60;1.20;;;15.10;70.70;16.70;100620.00;;;;4969933;28;20555;-75
2023/11/20 06:09:04;;;;;;;6.30;1.40;;;15.10;70.70;16.70;100613.00;;;;4969232;28;20198;-74
2023/11/20 06:11:31;;;;;;;9.95;2.00;;;15.10;70.60;16.70;100623.00;;;;4970232;28;20270;-74
2023/11/20 06:14:00;;;;;;;8.48;1.60;;;15.10;70.60;16.70;100626.00;;;;4973997;28;20222;-74
2023/11/20 06:16:27;;;;;;;7.18;1.98;;;15.10;70.60;16.60;100619.00;;;;4972957;28;20201;-75
2023/11/20 06:18:54;;;;;;;4.63;1.08;;;15.10;70.60;16.60;100625.00;;;;4974268;28;20202;-75
2023/11/20 06:21:22;;;;;;;8.65;1.35;;;15.10;70.60;16.60;100623.00;;;;4971916;28;20206;-75
2023/11/20 06:23:49;;;;;;;10.30;1.38;;;15.10;70.60;16.60;100622.00;;;;4981073;28;20206;-74
2023/11/20 06:26:17;;;;;;;9.43;1.50;;;15.10;70.60;16.60;100627.00;;;;4969325;28;20224;-75
2023/11/20 06:28:46;;;;;;;8.93;1.42;;;15.10;70.60;16.60;100626.00;;;;4963532;28;20204;-75
2023/11/20 06:31:14;;;;;;;8.02;1.48;;;15.10;70.70;16.60;100625.00;;;;4972173;28;20648;-75
2023/11/20 06:33:41;;;;;;;6.18;1.20;;;15.10;70.70;16.60;100630.00;;;;4971339;28;20218;-75
2023/11/20 06:36:10;;;;;;;7.93;1.27;;;15.10;70.70;16.60;100633.00;;;;4970733;28;20366;-75
2023/11/20 06:38:37;;;;;;;11.75;1.13;;;15.00;70.70;16.60;100631.00;;;;4986140;28;20202;-75
2023/11/20 06:41:05;;;;;;;10.77;1.70;;;15.00;70.60;16.60;100627.00;;;;4970564;28;20197;-75
2023/11/20 06:43:32;;;;;;;8.02;1.30;;;15.00;70.60;16.50;100628.00;;;;4970311;28;20205;-75
2023/11/20 06:45:59;;;;;;;5.75;1.58;;;15.00;70.70;16.60;100636.00;;;;4974779;28;20218;-75
2023/11/20 06:48:28;;;;;;;7.47;1.65;;;15.00;70.70;16.50;100645.00;;;;4978860;28;20253;-75
2023/11/20 06:50:54;;;;;;;10.57;2.47;;;15.00;70.70;16.50;100632.00;;;;4973686;28;20203;-75
2023/11/20 06:53:22;;;;;;;7.97;1.75;;;15.00;70.70;16.50;100642.00;;;;4968856;28;20233;-75
2023/11/20 06:55:49;;;;;;;9.73;1.40;;;15.00;70.60;16.50;100640.00;;;;4970271;28;20205;-75
2023/11/20 06:58:16;;;;;;;6.82;1.17;;;14.90;70.60;16.40;100642.00;;;;4972677;28;20237;-75
2023/11/20 07:00:43;;;;;;;13.52;1.20;;;14.90;70.60;16.40;100632.00;;;;4969787;28;20309;-76
2023/11/20 07:03:10;;;;;;;8.77;2.13;;;14.90;70.60;16.40;100634.00;;;;4969581;28;20214;-75
2023/11/20 07:05:39;;;;;;;12.07;2.13;;;14.90;70.50;16.40;100639.00;;;;4970684;28;20209;-76
2023/11/20 07:08:08;;;;;;;5.60;1.15;;;14.90;70.50;16.30;100641.00;;;;4977077;28;20198;-75
2023/11/20 07:10:35;;;;;;;8.80;1.33;;;14.80;70.40;16.30;100640.00;;;;4967485;28;20203;-75
2023/11/20 07:13:02;;;;;;;6.05;1.45;;;14.80;70.50;16.30;100650.00;;;;4972641;28;20230;-76
2023/11/20 07:15:31;;;;;;;9.15;1.98;;;14.80;70.50;16.30;100651.00;;;;4971475;28;20206;-76
2023/11/20 07:17:58;;;;;;;14.07;2.50;;;14.80;70.60;16.30;100649.00;;;;4966707;28;20205;-75
2023/11/20 07:20:25;;;;;;;8.02;2.08;;;14.80;70.60;16.30;100661.00;;;;4971055;28;20571;-75
2023/11/20 07:22:55;;;;;;;10.25;2.25;;;14.70;70.60;16.30;100658.00;;;;4971638;28;20333;-75
2023/11/20 07:25:22;;;;;;;12.00;1.55;;;14.70;70.70;16.30;100659.00;;;;4966428;28;20214;-75
2023/11/20 07:27:50;;;;;;;12.18;2.08;;;14.70;70.80;16.30;100651.00;;;;4976497;28;20263;-75
2023/11/20 07:30:17;;;;;;;9.50;2.00;;;14.80;70.90;16.30;100654.00;;;;4975039;28;20206;-76
2023/11/20 07:32:44;;;;;;;9.23;1.38;;;14.70;70.80;16.30;100658.00;;;;4973121;28;20559;-76
2023/11/20 07:35:13;;;;;;;13.15;1.52;;;14.70;70.80;16.20;100660.00;;;;4975591;28;20213;-75
2023/11/20 07:37:41;;;;;;;9.55;1.48;;;14.70;70.60;16.20;100668.00;;;;4980801;28;20256;-75
2023/11/20 07:40:12;;;;;;;8.07;1.70;;;14.70;70.60;16.20;100674.00;;;;4970004;28;20194;-75
2023/11/20 07:42:39;;;;;;;9.68;1.85;;;14.70;70.60;16.20;100671.00;;;;4975931;28;20206;-76
2023/11/20 07:45:08;;;;;;;8.68;1.55;;;14.70;70.60;16.20;100674.00;;;;4966161;28;20549;-76
2023/11/20 07:47:35;;;;;;;8.77;1.67;;;14.60;70.60;16.20;100679.00;;;;4964893;28;20203;-75
2023/11/20 07:50:03;;;;;;;9.75;1.95;;;14.60;70.70;16.20;100679.00;;;;4969089;28;20235;-76
2023/11/20 07:52:32;;;;;;;12.57;1.70;;;14.60;70.80;16.20;100671.00;;;;4970019;28;20202;-75
2023/11/20 07:54:59;;;;;;;8.98;1.80;;;14.60;70.80;16.20;100673.00;;;;4969068;28;20202;-76
2023/11/20 07:57:27;;;;;;;10.77;1.33;;;14.60;70.70;16.20;100682.00;;;;4969785;28;20237;-75
2023/11/20 07:59:55;;;;;;;9.30;1.98;;;14.60;70.70;16.20;100683.00;;;;4974932;28;20202;-75
2023/11/20 08:02:23;;;;;;;11.90;2.22;;;14.60;70.60;16.20;100683.00;;;;4971382;28;20206;-76
2023/11/20 08:04:50;;;;;;;12.50;2.65;;;14.60;70.70;16.20;100682.00;;;;4969466;28;20209;-76
2023/11/20 08:07:17;;;;;;;9.65;1.58;;;14.60;70.80;16.20;100672.00;;;;4973995;28;20209;-76
2023/11/20 08:09:44;;;;;;;10.30;2.10;;;14.60;70.80;16.20;100677.00;;;;4970508;28;20257;-76
2023/11/20 08:12:11;;;;;;;7.95;1.65;;;14.60;70.90;16.30;100677.00;;;;4974108;28;20195;-76
2023/11/20 08:14:39;;;;;;;10.55;1.90;;;14.60;71.00;16.20;100678.00;;;;4974631;28;20225;-76
2023/11/20 08:17:07;;;;;;;15.85;2.25;;;14.70;71.60;16.30;100678.00;;;;4970941;28;20707;-76
2023/11/20 08:19:35;;;;;;;8.18;2.38;;;14.60;70.80;16.30;100682.00;;;;4972598;28;20198;-76
2023/11/20 08:22:04;;;;;;;10.93;2.35;;;14.70;70.90;16.30;100681.00;;;;4975974;28;20675;-76
2023/11/20 08:24:31;;;;;;;7.72;1.90;;;14.70;70.90;16.30;100682.00;;;;4969435;28;20600;-76
2023/11/20 08:26:58;;;;;;;10.75;2.05;;;14.70;70.80;16.30;100677.00;;;;4970623;28;20206;-76
2023/11/20 08:29:27;;;;;;;4.53;1.10;;;14.70;70.70;16.30;100683.00;;;;4962714;28;20198;-75
2023/11/20 08:31:55;;;;;;;15.27;2.42;;;14.70;70.60;16.20;100678.00;;;;4970207;28;20660;-76
2023/11/20 08:34:22;;;;;;;7.85;1.55;;;14.70;70.60;16.20;100674.00;;;;4972894;28;20224;-76
2023/11/20 08:36:49;;;;;;;9.98;1.80;;;14.70;70.60;16.20;100675.00;;;;4974036;28;20194;-76
2023/11/20 08:39:19;;;;;;;9.55;2.03;;;14.70;70.60;16.20;100675.00;;;;4977638;28;20679;-75
2023/11/20 08:41:46;;;;;;;9.35;1.60;;;14.60;70.50;16.20;100677.00;;;;4970790;28;20269;-76
2023/11/20 08:44:14;;;;;;;7.50;1.90;;;14.60;70.50;16.20;100673.00;;;;4967634;28;20203;-76
2023/11/20 08:46:43;;;;;;;8.45;1.50;;;14.70;70.50;16.20;100681.00;;;;4970459;28;21224;-76
2023/11/20 08:49:11;;;;;;;6.93;1.73;;;14.60;70.40;16.20;100669.00;;;;4968783;28;20288;-75
2023/11/20 08:51:38;;;;;;;14.45;2.22;;;14.60;70.40;16.20;100678.00;;;;4984439;28;20205;-75
2023/11/20 08:54:06;;;;;;;7.97;1.75;;;14.60;70.40;16.20;100678.00;;;;4970940;28;20249;-76
2023/11/20 08:56:33;;;;;;;9.68;1.88;;;14.60;70.30;16.20;100686.00;;;;4970085;28;20207;-76
2023/11/20 08:59:00;;;;;;;7.90;1.38;;;14.60;70.30;16.20;100683.00;;;;4972789;28;20212;-76
2023/11/20 09:01:32;;;;;;;10.13;2.05;;;14.60;70.40;16.10;100677.00;;;;4970551;28;20587;-76
2023/11/20 09:03:59;;;;;;;8.95;1.60;;;14.60;70.40;16.20;100671.00;;;;4975625;28;20205;-75
2023/11/20 09:06:27;;;;;;;9.85;2.05;;;14.60;70.50;16.20;100675.00;;;;4971574;28;20250;-75
2023/11/20 09:08:54;;;;;;;10.88;1.85;;;14.60;70.60;16.30;100670.00;;;;4969419;28;20206;-76
2023/11/20 09:11:22;;;;;;;5.38;1.55;;;14.70;70.80;16.30;100680.00;;;;4974843;28;20217;-76
2023/11/20 09:13:49;;;;;;;8.48;2.17;;;14.70;71.00;16.40;100672.00;;;;4972716;28;20221;-76
2023/11/20 09:16:16;;;;;;;9.27;1.65;;;14.70;71.00;16.40;100674.00;;;;4970240;28;20194;-76
2023/11/20 09:18:43;;;;;;;12.38;2.00;;;14.80;71.10;16.50;100672.00;;;;4973873;28;20202;-75
2023/11/20 09:21:10;;;;;;;10.98;2.42;;;14.90;71.50;16.50;100676.00;;;;4970843;28;20206;-76
2023/11/20 09:23:38;;;;;;;9.82;2.35;;;14.90;71.10;16.60;100679.00;;;;4967739;28;20216;-76
2023/11/20 09:26:11;;;;;;;9.30;2.00;;;14.90;71.10;16.70;100674.00;;;;4978262;28;20201;-76
2023/11/20 09:28:39;;;;;;;5.82;1.23;;;15.00;71.20;16.80;100679.00;;;;4972351;28;20199;-76
2023/11/20 09:31:06;;;;;;;22.17;3.20;;;15.10;71.20;16.80;100670.00;;;;4968675;28;20210;-75
2023/11/20 09:33:34;;;;;;;7.43;1.60;;;15.10;71.10;16.90;100682.00;;;;4975848;28;20225;-76
2023/11/20 09:36:02;;;;;;;16.33;2.78;;;15.20;71.10;17.00;100677.00;;;;4968451;28;20855;-76
2023/11/20 09:38:29;;;;;;;6.32;1.95;;;15.30;71.80;17.00;100683.00;;;;4974016;28;20349;-75
2023/11/20 09:40:58;;;;;;;10.25;1.48;;;15.40;71.10;17.10;100680.00;;;;4967781;28;20198;-75
2023/11/20 09:43:30;;;;;;;11.15;2.55;;;15.40;71.00;17.10;100681.00;;;;4965504;28;20205;-76
2023/11/20 09:46:01;;;;;;;12.10;2.00;;;15.50;70.90;17.20;100671.00;;;;4972722;28;20217;-76
2023/11/20 09:48:33;;;;;;;12.55;2.10;;;15.60;70.80;17.30;100674.00;;;;4973244;28;20191;-76
2023/11/20 09:51:02;;;;;;;12.98;1.90;;;15.70;70.80;17.40;100673.00;;;;4968111;28;20212;-75
2023/11/20 09:53:34;;;;;;;11.50;1.52;;;15.70;70.70;17.40;100664.00;;;;4967780;28;20328;-76
2023/11/20 09:56:04;;;;;;;7.93;1.73;;;15.80;70.50;17.50;100674.00;;;;4967225;28;20206;-76
2023/11/20 09:58:31;;;;;;;13.18;2.60;;;15.90;70.40;17.60;100666.00;;;;4971750;28;20309;-75
2023/11/20 10:01:06;;;;;;;8.10;1.70;;;15.90;70.30;17.50;100672.00;;;;4968588;28;20190;-76
2023/11/20 10:03:37;;;;;;;12.98;3.05;;;16.00;70.00;17.60;100666.00;;;;4969024;28;20607;-76
2023/11/20 10:06:08;;;;;;;9.68;2.45;;;16.00;69.70;17.60;100666.00;;;;4967795;28;20197;-76
2023/11/20 10:08:37;;;;;;;10.13;2.05;;;16.00;69.50;17.60;100665.00;;;;4976209;28;20567;-76
2023/11/20 10:11:07;;;;;;;10.02;1.48;;;16.10;69.40;17.60;100669.00;;;;4975192;28;20206;-75
2023/11/20 10:13:35;;;;;;;16.42;2.30;;;16.00;69.20;17.60;100672.00;;;;4973310;28;20718;-76
2023/11/20 10:16:05;;;;;;;7.10;1.67;;;16.10;69.30;17.70;100672.00;;;;4975063;28;20691;-76
2023/11/20 10:18:32;;;;;;;11.88;1.95;;;16.10;69.50;17.80;100666.00;;;;4964408;28;20206;-75
2023/11/20 10:21:01;;;;;;;14.23;2.00;;;16.10;69.50;17.80;100669.00;;;;4977541;28;20675;-75
2023/11/20 10:23:31;;;;;;;11.95;2.55;;;16.20;69.50;17.80;100664.00;;;;4977725;28;20275;-75
2023/11/20 10:26:00;;;;;;;6.80;1.13;;;16.20;69.50;17.90;100659.00;;;;4969017;28;20194;-75
2023/11/20 10:28:29;;;;;;;7.03;1.40;;;16.30;69.50;17.90;100661.00;;;;4974567;28;20203;-76
2023/11/20 10:30:56;;;;;;;8.65;1.67;;;16.30;69.30;18.00;100657.00;;;;4971099;28;20201;-76
2023/11/20 10:33:23;;;;;;;10.85;2.38;;;16.30;69.10;18.00;100665.00;;;;4970307;28;20603;-76
2023/11/20 10:35:51;;;;;;;8.13;1.92;;;16.40;69.10;18.00;100655.00;;;;4962279;28;20301;-75
2023/11/20 10:38:22;;;;;;;6.95;1.35;;;16.40;68.80;17.90;100653.00;;;;4974941;28;20652;-76
2023/11/20 10:40:49;;;;;;;12.13;2.05;;;16.40;68.90;18.00;100655.00;;;;4973899;28;20208;-76
2023/11/20 10:43:17;;;;;;;7.50;2.20;;;16.40;68.90;18.00;100644.00;;;;4972980;28;20207;-76
2023/11/20 10:45:45;;;;;;;6.75;2.00;;;16.40;68.90;18.00;100641.00;;;;4975635;28;20556;-75
2023/11/20 10:48:12;;;;;;;7.53;1.58;;;16.50;69.00;18.10;100639.00;;;;4970169;28;20202;-76